Sedona, AZ

3:47 PM MST on February 13, 2016 (GMT -0700)
CR Ranch | | Change Station
CLOSE
Current Station
Personal Weather Station
Location: Sedona, AZ
Elevation: 4049 ft
Nearby Weather Stations

Elev 4049 ft 34.81 °N, 111.80 °W | Updated 57 seconds ago

Clear
Clear
77.1 °F
Feels Like 76 °F
N
2.0
Wind Variable Wind from NNW
Gusts 4.0 mph

Today
High -- | Low -- °F
--% Chance of Precip.
Yesterday
High -- | Low -- °F
Precip. -- in
Pressure 30.13 in
Visibility 10.0 miles
Clouds Clear
Heat Index 76 °F
Dew Point 19 °F
Humidity 11%
Rainfall in
Snow Depth Not available.
7:15 AM 6:07 PM
Waxing Crescent, 35% visible
METAR KSEZ 132235Z AUTO 00000KT 10SM CLR 23/M07 A3013 RMK AO2
Pressure 30.13 in
Visibility 10.0 miles
Clouds Clear
Heat Index 76 °F
Dew Point 19 °F
Humidity 11%
Rainfall in
Snow Depth Not available.
7:15 AM 6:07 PM
Waxing Crescent, 35% visible
METAR KSEZ 132235Z AUTO 00000KT 10SM CLR 23/M07 A3013 RMK AO2

10-Day Weather Forecast

Almanac

Astronomy

Feb. 13, 2016 Rise Set
Actual Time
Civil Twilight
Nautical Twilight
Astronomical Twilight
Moon
Length of Visible Light
Length of Day
Tomorrow will be .
, % of the Moon is Illuminated

Today's Extremes

State Highs State Lows

Community

WunderPhotos

Upload Photos

1,892,689 photos uploaded!

WunderBlog® & News

Nearby

Air Quality

  Air Quality AQ Index Pollutant
Not available.

Snow Depth

Station Depth Elevation

Earthquake Activity

City Distance Mag. Time & Date
Minimum magnitude displayed is 2.5.

Coastal Water Temperatures

Place Temperature

Stations

Nearby Weather Stations

Station Location Temp. Windchill Dew Point Humidity Wind Precip. Elev Updated Type
                   

Watches & Warnings

There are currently no watches in effect.